Terminal Aerodrome Forecast
Issued by NWS

Home | Current Version | Previous Version | Text Only | Print | Product List | Glossary On
Versions: 1 2 3 4 5 6 7 8 9 10 11 12 13 14 15 16 17 18 19 20 21 22 23 24 25 26 27 28 29 30 31 32 33 34 35 36 37 38 39 40 41 42 43 44 45 46 47 48 49 50
000
FTUS43 KMKX 290520
TAFUES
TAF
KUES 290520Z 2906/3006 06006KT 1/4SM FG VV002
     FM291200 05007KT 3/4SM BR OVC003
     FM291500 07009KT 2SM BR BKN008 OVC150
     FM291600 07011KT 6SM BR SCT015 OVC120
     FM292000 05011KT P6SM OVC080
     FM300500 08012KT P6SM -RASN OVC035=

USA.gov is the U.S. government's official web portal to all federal, state and local government web resources and services.